Flight Track Log - Related Links

Times and Time Zones

All times are in EDT time to prevent confusion due to time zone crossing. See the SWA3028 flight status page for this flight to view local times or setup timezone preferences in your user account.


Time Position Orientation Groundspeed Altitude Reporting Facility
EDT Latitude Longitude Course Direction KTS MPH feet Rate Location/Type
Sun 06:07:46 AM 33.6453 -84.4681 280° West 447 514 2,500  Level Atlanta Center
Sun 06:08:17 AM 33.6500 -84.5000 280° West 196 226 3,600 2,194 Climbing Atlanta TRACON
Sun 06:09:19 AM 33.6667 -84.5667 287° West 255 293 5,900 3,048 Climbing Atlanta TRACON
Sun 06:10:23 AM 33.7333 -84.5833 348° North 277 319 10,000 3,101 Climbing Atlanta TRACON
Sun 06:12:46 AM 33.9619 -84.5947 358° North 341 392 16,600 2,808 Climbing Atlanta Center
Sun 06:13:46 AM 34.0644 -84.5931 North 354 407 19,500 2,700 Climbing Atlanta Center
Sun 06:15:46 AM 34.2939 -84.5994 359° North 409 471 24,700 2,500 Climbing Atlanta Center
Sun 06:16:46 AM 34.4064 -84.6253 349° North 409 471 27,000 2,000 Climbing Atlanta Center
Sun 06:17:46 AM 34.5086 -84.6489 349° North 414 476 28,700 1,700 Climbing Atlanta Center
Sun 06:18:46 AM 34.6253 -84.6800 348° North 414 476 30,400 1,800 Climbing Atlanta Center
Sun 06:19:46 AM 34.7525 -84.7139 348° North 419 482 32,300 1,700 Climbing Atlanta Center
Sun 06:20:46 AM 34.8733 -84.7425 349° North 424 488 33,800 1,500 Climbing Atlanta Center
Sun 06:21:46 AM 34.9964 -84.7742 348° North 436 502 35,300 1,650 Climbing Atlanta Center
Sun 06:22:46 AM 35.1172 -84.8031 349° North 436 502 37,100 1,650 Climbing Atlanta Center
Sun 06:23:46 AM 35.2339 -84.8322 348° North 436 502 38,600 1,100 Climbing Atlanta Center
Sun 06:24:46 AM 35.3506 -84.8611 349° North 431 496 39,300 700 Climbing Atlanta Center
Sun 06:25:46 AM 35.4692 -84.8906 349° North 431 496 40,000 251 Climbing Atlanta Center
Sun 06:27:33 AM 35.6797 -84.9425 349° North 433 498 40,000  Level Indianapolis Center
Sun 06:28:33 AM 35.7800 -84.9683 348° North 431 496 40,000  Level Indianapolis Center
Sun 06:29:33 AM 35.8983 -84.9983 348° North 431 496 40,000  Level Indianapolis Center
Sun 06:30:34 AM 36.0136 -85.0275 348° North 422 486 40,000  Level Indianapolis Center
Sun 06:31:34 AM 36.1303 -85.0533 350° North 422 486 40,000  Level Indianapolis Center
Sun 06:32:34 AM 36.2472 -85.0783 350° North 424 488 40,000  Level Indianapolis Center
Sun 06:33:35 AM 36.3675 -85.1036 350° North 436 502 40,000  Level Indianapolis Center
Sun 06:34:35 AM 36.4872 -85.1303 350° North 435 501 40,000  Level Indianapolis Center
Sun 06:35:35 AM 36.6078 -85.1556 350° North 436 502 40,000  Level Indianapolis Center
Sun 06:36:36 AM 36.7275 -85.1800 351° North 438 504 40,000  Level Indianapolis Center
Sun 06:37:36 AM 36.8486 -85.2083 349° North 440 506 40,000  Level Indianapolis Center
Sun 06:38:36 AM 36.9692 -85.2344 350° North 440 506 40,000  Level Indianapolis Center
Sun 06:39:37 AM 37.1083 -85.2653 350° North 445 512 40,000  Level Indianapolis Center
Sun 06:40:37 AM 37.2306 -85.2925 350° North 445 512 40,000  Level Indianapolis Center
Sun 06:41:38 AM 37.3511 -85.3183 350° North 439 505 40,000  Level Indianapolis Center
Sun 06:42:38 AM 37.4706 -85.3464 349° North 436 502 40,000  Level Indianapolis Center
Sun 06:43:38 AM 37.5897 -85.3731 350° North 434 499 40,000  Level Indianapolis Center
Sun 06:44:39 AM 37.7078 -85.4025 349° North 432 497 40,000  Level Indianapolis Center
Sun 06:45:39 AM 37.8278 -85.4283 350° North 434 499 40,000 -99 Level Indianapolis Center
Sun 06:46:40 AM 37.9339 -85.4494 351° North 442 509 39,800 -694 Descending Indianapolis Center
Sun 06:47:40 AM 38.0756 -85.4822 350° North 430 495 38,600 -1,041 Descending Indianapolis Center
Sun 06:48:41 AM 38.1939 -85.5100 350° North 431 496 37,700 -942 Descending Indianapolis Center
Sun 06:49:41 AM 38.3164 -85.5358 351° North 442 509 36,700 -1,000 Descending Indianapolis Center
Sun 06:50:41 AM 38.4375 -85.5644 350° North 442 509 35,700 -843 Descending Indianapolis Center
Sun 06:51:42 AM 38.5553 -85.5914 350° North 435 501 35,000 -347 Descending Indianapolis Center
Sun 06:52:42 AM 38.6664 -85.6175 350° North 418 481 35,000  Level Indianapolis Center
Sun 06:53:43 AM 38.7775 -85.6422 350° North 409 471 35,000  Level Indianapolis Center
Sun 06:54:43 AM 38.8900 -85.6683 350° North 411 473 35,000  Level Indianapolis Center
Sun 06:55:44 AM 39.0017 -85.6950 349° North 411 473 35,000 -744 Level Indianapolis Center
Sun 06:56:44 AM 39.1125 -85.7208 350° North 408 470 33,500 -1,785 Descending Indianapolis Center
Sun 06:57:45 AM 39.2217 -85.7461 350° North 402 463 31,400 -1,835 Descending Indianapolis Center
Sun 06:58:45 AM 39.3267 -85.7711 350° North 390 449 29,800 -1,339 Descending Indianapolis Center
Sun 06:59:46 AM 39.4272 -85.7942 350° North 374 430 28,700 -1,041 Descending Indianapolis Center
Sun 07:00:46 AM 39.5267 -85.8178 350° North 367 422 27,700 -950 Descending Indianapolis Center
Sun 07:01:46 AM 39.6244 -85.8408 350° North 362 417 26,800 -992 Descending Indianapolis Center
Sun 07:02:47 AM 39.7211 -85.8631 350° North 357 411 25,700 -1,033 Descending Indianapolis Center
Sun 07:03:48 AM 39.8153 -85.8858 349° North 350 403 24,700 -843 Descending Indianapolis Center
Sun 07:04:48 AM 39.9081 -85.9078 350° North 344 396 24,000 -347 Descending Indianapolis Center
Sun 07:05:49 AM 40.0197 -85.9347 350° North 345 397 24,000  Level Indianapolis Center
Sun 07:06:49 AM 40.1164 -85.9583 349° North 354 407 24,000  Level Indianapolis Center
Sun 07:07:30 AM 40.1739 -85.9706 351° North 353 406 24,000 -588 Level Chicago Center
Sun 07:08:31 AM 40.2642 -86.0103 341° North 344 396 23,000 -496 Descending Chicago Center
Sun 07:09:31 AM 40.3411 -86.0783 326° Northwest 337 388 23,000  Level Chicago Center
Sun 07:10:32 AM 40.4183 -86.1475 326° Northwest 338 389 23,000  Level Chicago Center
Sun 07:11:32 AM 40.4944 -86.2178 325° Northwest 338 389 23,000  Level Chicago Center
Sun 07:12:33 AM 40.5708 -86.2883 325° Northwest 337 388 23,000 -66 Level Chicago Center
Sun 07:14:33 AM 40.7253 -86.4281 326° Northwest 333 383 22,800 -530 Descending Chicago Center
Sun 07:15:34 AM 40.7942 -86.4911 325° Northwest 312 359 21,400 -1,537 Descending Chicago Center
Sun 07:16:34 AM 40.8600 -86.5511 325° Northwest 294 338 19,700 -1,686 Descending Chicago Center
Sun 07:17:35 AM 40.9219 -86.6089 325° Northwest 280 322 18,000 -1,820 Descending Chicago Center
Sun 07:18:36 AM 40.9942 -86.6736 326° Northwest 265 305 16,000 -1,835 Descending Chicago Center
Sun 07:19:36 AM 41.0525 -86.7292 324° Northwest 260 299 14,300 -1,587 Descending Chicago Center
Sun 07:20:37 AM 41.1069 -86.7775 326° Northwest 254 292 12,800 -1,537 Descending Chicago Center
Sun 07:21:37 AM 41.1617 -86.8297 324° Northwest 247 284 11,200 -992 Descending Chicago Center
Sun 07:22:38 AM 41.2189 -86.8817 326° Northwest 249 287 10,800 -744 Descending Chicago Center
Sun 07:23:38 AM 41.2753 -86.9350 325° Northwest 251 289 9,700 -1,041 Descending Chicago Center
Sun 07:24:39 AM 41.3317 -86.9869 325° Northwest 248 285 8,700 -934 Descending Chicago Center
Sun 07:25:40 AM 41.3869 -87.0386 325° Northwest 246 283 7,800 -992 Descending Chicago Center
Sun 07:26:40 AM 41.4417 -87.0903 325° Northwest 245 282 6,700 -893 Descending Chicago Center
Sun 07:27:41 AM 41.4825 -87.1567 309° West 238 274 6,000 -769 Descending Chicago Center
Sun 07:27:58 AM 41.5000 -87.1833 311° West 232 267 5,700 -779 Descending Chicago TRACON
Sun 07:28:58 AM 41.5333 -87.2667 298° West 236 272 5,000 -800 Descending Chicago TRACON
Sun 07:29:58 AM 41.5667 -87.3500 298° West 240 276 4,100 -743 Descending Chicago TRACON
Sun 07:30:43 AM 41.5861 -87.3981 298° West 239 275 3,700 -514 Descending Chicago Center
Sun 07:31:43 AM 41.6169 -87.4719 299° West 235 270 3,200 -397 Descending Chicago Center
Sun 07:32:44 AM 41.6478 -87.5458 299° West 232 267 2,900 -98 Descending Chicago Center
Sun 07:33:45 AM 41.6797 -87.6044 306° West 213 245 3,000 70 Climbing Chicago Center
Sun 07:34:10 AM 41.7000 -87.6333 313° West 168 193 3,000 -494 Level Chicago TRACON
Sun 07:35:10 AM 41.7167 -87.6667 304° West 141 162 2,300 -694 Descending Chicago TRACON
Sun 07:36:11 AM 41.7500 -87.7000 323° Northwest 110 127 1,600 -645 Descending Chicago TRACON
Sun 07:37:11 AM 41.7667 -87.7333 304° West 114 131 1,000 -600 Descending Chicago TRACON
Sun 07:39:00 AM 41.7833 -87.7500 334° Northwest  Level FlightAware Approximate

Login

Don't have an account? Register now (free) for customized features, flight alerts, and more!